New Bedford Regional Airport
KEWB : now visible

Airfield :











YOU CAN JOIN US ON...

 
LOGIN :

Register | Disclaimer

   EN    FR    IT 

 









Legend :    VFR   Marginal VFR   IFR   Intensive IFR   Very Intensive IFR
Visi :
Ceiling :
>= 8 km
>= 3000ft
5 to 8 km
1000 to 3000 ft
1500m to 5 km
500 to 1000 ft
800 to 1500m
200 to 500 ft
< 800m
< 200 ft
Symbols :   Thunderstorms  Fog  Heavy snow  Heavy precipitations  Wind > 20 kt







- Airport Elevation : 80 ft
- IATA code : EWB


KEWB - New Bedford Regional

CURRENT METAR :
  • 230153Z AUTO 26015G27KT 10SM -RA FEW027 OVC035 05/02 A2925 RMK AO2 PK WND 27031/0124 RAB36 SLP906 P0000 T00500017

EXPIRED METARs :
  • 230053Z 25019G24KT 10SM FEW029 BKN070 OVC080 06/02 A2922 RMK AO2 PK WND 28030/2357 SLP896 T00560017
  • 222353Z 26019G25KT 10SM OVC032 06/02 A2919 RMK AO2 PK WND 29026/2323 SLP886 60001 T00610017 10067 20033 53020

TAF N/A
KZBW FIR / North America



MET'MAP, your aeronautical weather chart ! - Copyright ORBIFLY December 2007 - Disclaimer

ORBIFLY MET'MAP TEAM :

Programming & Development : Alexandra Zaïnal
Concept & Development : Baudouin d'Aumeries
Co-Development & Prog : Marc-Olivier Méhu
Technical & hardware support : Manuel Goepfert

Contact : metmap@orbifly.com




SOURCES & CREDITS :

   NOAA       Earth
Advisory